Terminal Aerodrome Forecast
Issued by NWS

Home | Current Version | Previous Version | Text Only | Print | Product List | Glossary On
Versions: 1 2 3 4 5 6 7 8 9 10 11 12 13 14 15
000
FTUS46 KHNX 261242 AAA
TAFVIS
TAF AMD
KVIS 261242Z 2613/2712 32009KT P6SM SKC
     FM261800 31011G17KT P6SM FEW250
     FM270300 32006KT P6SM BKN250
     FM270600 VRB03KT P6SM BKN250=

USA.gov is the U.S. government's official web portal to all federal, state and local government web resources and services.